1873 Hurricane NOT_NAMED (1873269N13303)


IBTrACS version v04r00. Visit IBTrACS website for data access.
Please direct all questions to the IBTrACS Q and A forum

Storm track - Intensity - Wind Radii - Intensity Data - Source Data - All data

Summary Information

Storm ID 1873269N13303
Start Sep 25 12Z
Landfall Sep 29 03Z, Oct 7 01Z
Max Intensity 100 kt (Sep 28 12Z), 959 mb (Oct 7 00Z)
End Oct 10 06Z
ATCF IDs ,AL051873
Track status Best track data.

Storm track plot

Map of storm track

Intensity plots

Map of storm track

Radial wind information

No radial wind information for this storm


Position and Intensity Table

BASIN ISO_TIME_________ NATURE LAT LON WMO WIND WMO PRES USA WIND USA PRES MLC WIND MLC PRES
degrees north degrees east kts mb kts mb kts mb
NA 1873-09-25 12:00:00 TS 13.20 -57.00 35
NA 15:00:00 TS 13.36 -57.66 35
NA 18:00:00 TS 13.50 -58.30 35
NA 21:00:00 TS 13.60 -58.90 37
NA 1873-09-26 00:00:00 TS 14.03 -60.43 40 40 40
NA 03:00:00 TS 14.30 -61.42 40 40
NA 06:00:00 TS 14.48 -62.18 40 40 40
NA 09:00:00 TS 14.62 -62.80 45 45
NA 12:00:00 TS 14.73 -63.33 50 50 50
NA 15:00:00 TS 14.91 -63.97 50 55
NA 18:00:00 TS 15.13 -64.70 50 50 60
NA 21:00:00 TS 15.37 -65.48 55 60
NA 1873-09-27 00:00:00 TS 15.60 -66.27 60 60 60
NA 03:00:00 TS 15.81 -66.95 60 65
NA 06:00:00 TS 16.00 -67.63 60 60 70
NA 09:00:00 TS 16.15 -68.45 65 72
NA 12:00:00 TS 16.30 -69.20 70 70 75
NA 15:00:00 TS 16.50 -69.73 70 77
NA 18:00:00 TS 16.70 -70.17 70 70 80
NA 21:00:00 TS 16.86 -70.61 75 82
NA 1873-09-28 00:00:00 TS 17.03 -71.07 80 80 85
NA 03:00:00 TS 17.25 -71.61 85 87
NA 06:00:00 TS 17.50 -72.13 90 90 90
NA 09:00:00 TS 17.71 -72.50 95 95
NA 12:00:00 TS 18.00 -72.83 100 100 100 971
NA 15:00:00 TS 18.45 -73.27 95 97
NA 18:00:00 TS 18.93 -73.70 90 90 95
NA 21:00:00 TS 19.31 -74.00 90 92
NA 1873-09-29 00:00:00 TS 19.63 -74.33 90 90 90
NA 03:00:00 TS 19.96 -74.86 85 90
NA 06:00:00 TS 20.20 -75.43 80 80 90
NA 09:00:00 TS 20.27 -75.92 70 85
NA 12:00:00 TS 20.27 -76.33 60 60 80
NA 15:00:00 TS 20.29 -76.67 55 77
NA 18:00:00 TS 20.30 -76.97 50 50 75
NA 21:00:00 TS 20.31 -77.32 45 72
NA 1873-09-30 00:00:00 TS 20.30 -77.67 40 40 70
NA 03:00:00 TS 20.28 -77.97 40 70
NA 06:00:00 TS 20.27 -78.27 40 40 70
NA 09:00:00 TS 20.29 -78.58 40 70
NA 12:00:00 TS 20.33 -78.90 40 40 70
NA 15:00:00 TS 20.39 -79.22 40 72
NA 18:00:00 TS 20.43 -79.53 40 40 75
NA 21:00:00 TS 20.45 -79.81 40 75
NA 1873-10-01 00:00:00 TS 20.47 -80.07 40 40 75
NA 03:00:00 TS 20.49 -80.35 40 80
NA 06:00:00 TS 20.50 -80.63 40 40 85
NA 09:00:00 TS 20.50 -80.89 40 87
NA 12:00:00 TS 20.50 -81.13 40 40 90
NA 15:00:00 TS 20.51 -81.37 40 92
NA 18:00:00 TS 20.53 -81.60 40 40 95
NA 21:00:00 TS 20.55 -81.85 45 97
NA 1873-10-02 00:00:00 TS 20.57 -82.10 50 50 100
NA 03:00:00 TS 20.60 -82.32 50 100
NA 06:00:00 TS 20.63 -82.53 50 50 100
NA 09:00:00 TS 20.66 -82.79 50 100
NA 12:00:00 TS 20.67 -83.03 50 50 100 960
NA 15:00:00 TS 20.67 -83.20 50 100
NA 18:00:00 TS 20.67 -83.33 50 50 100
NA 21:00:00 TS 20.65 -83.47 55 100
NA 1873-10-03 00:00:00 TS 20.63 -83.63 60 60 100
NA 03:00:00 TS 20.62 -83.84 60 100
NA 06:00:00 TS 20.60 -84.07 60 60 100
NA 09:00:00 TS 20.58 -84.25 65 100
NA 12:00:00 TS 20.57 -84.43 70 70 100
NA 15:00:00 TS 20.55 -84.68 70 100
NA 18:00:00 TS 20.53 -84.93 70 70 100
NA 21:00:00 TS 20.51 -85.15 70 100
NA 1873-10-04 00:00:00 TS 20.50 -85.37 70 70 100
NA 03:00:00 TS 20.50 -85.61 70 100
NA 06:00:00 TS 20.53 -85.83 70 70 100
NA 09:00:00 TS 20.59 -86.05 75 100
NA 12:00:00 TS 20.67 -86.20 80 80 100
NA 15:00:00 TS 20.77 -86.20 80 100
NA 18:00:00 TS 20.90 -86.17 80 80 100
NA 21:00:00 TS 21.06 -86.22 80 100
NA 1873-10-05 00:00:00 TS 21.23 -86.27 80 80 100
NA 03:00:00 TS 21.42 -86.26 80 100
NA 06:00:00 TS 21.60 -86.23 80 80 100
NA 09:00:00 TS 21.73 -86.21 85 100
NA 12:00:00 TS 21.87 -86.17 90 90 100
NA 15:00:00 TS 22.07 -86.09 90 100
NA 18:00:00 TS 22.30 -85.97 90 90 100
NA 21:00:00 TS 22.54 -85.81 90 100
NA 1873-10-06 00:00:00 TS 22.80 -85.63 90 90 100
NA 03:00:00 TS 23.07 -85.50 90 100
NA 06:00:00 TS 23.37 -85.37 90 90 100
NA 09:00:00 TS 23.65 -85.25 95 100
NA 12:00:00 TS 24.00 -85.00 100 100 100
NA 15:00:00 TS 24.44 -84.48 100 100
NA 18:00:00 TS 24.97 -83.80 100 100 100
NA 21:00:00 TS 25.56 -83.09 100 100
NA 1873-10-07 00:00:00 TS 26.23 -82.30 100 959 100 959 100 959
NA 01:00:00 TS 26.47 -82.04 100 959 100 959 99
NA 03:00:00 TS 26.97 -81.43 91 97
NA 06:00:00 TS 27.77 -80.37 80 80 95
NA 09:00:00 TS 28.55 -79.27 80 95
NA 12:00:00 TS 29.33 -78.17 80 80 95
NA 15:00:00 TS 30.11 -77.12 80 95
NA 18:00:00 TS 30.87 -76.10 80 80 95
NA 21:00:00 TS 31.60 -75.07 85 95
NA 1873-10-08 00:00:00 TS 32.30 -74.03 90 90 95 962
NA 03:00:00 TS 32.91 -73.00 90 82
NA 06:00:00 TS 33.59 -72.35 90 90 70
NA 09:00:00 TS 34.37 -71.91 85 60
NA 12:00:00 TS 35.10 -71.70 80 80 50
NA 15:00:00 TS 35.66 -71.82 80
NA 18:00:00 TS 36.30 -70.90 80 80
NA 21:00:00 TS 36.90 -69.75 75
NA 1873-10-09 00:00:00 TS 37.50 -68.50 70 70
NA 03:00:00 TS 38.19 -67.24 70
NA 06:00:00 TS 38.80 -66.10 70 70
NA 09:00:00 TS 39.21 -65.23 65
NA 12:00:00 ET 39.50 -64.50 60 60
NA 15:00:00 ET 39.76 -63.74 60
NA 18:00:00 ET 40.00 -63.00 60 60
NA 21:00:00 ET 40.25 -62.25 60
NA 1873-10-10 00:00:00 ET 40.50 -61.50 60 60
NA 03:00:00 ET 40.75 -60.75 60
NA 06:00:00 ET 41.00 -60.00 60 60

Source Information

Agency Information
USA hurdat2-1851-2018-051019.txt:Line=2614:UNNAMED
TOKYO
CMA
HKO
NEWDELHI
REUNION
BOM
NADI
WELLINGTON
DS824
TD9636
TD9635
NEUMANN
MLC

All available IBTrACS Data

SEASON BASIN SUBBASIN ISO_TIME_________ NATURE LAT LON WMO WIND WMO PRES WMO AGENCY DIST2LAND LANDFALL IFLAG USA AGENCY USA ATCF_ID USA LAT USA LON USA RECORD USA STATUS USA WIND USA PRES USA SSHS MLC LAT MLC LON MLC CLASS MLC WIND MLC PRES STORM SPEED STORM DIR
Year degrees north degrees east kts mb km km degrees north degrees east kts mb 1 degrees north degrees east kts mb kts degrees
1873 NA NA 1873-09-25 12:00:00 TS 13.20 -57.00 517 470 _____________O -1 13.20 -57.00 TS 35 13 284
1873 NA NA 15:00:00 TS 13.36 -57.66 469 429 _____________P -1 13.36 -57.66 TS 35 13 283
1873 NA NA 18:00:00 TS 13.50 -58.30 429 401 _____________O -1 13.50 -58.30 TS 35 12 281
1873 NA NA 21:00:00 TS 13.60 -58.90 397 371 _____________P -1 13.60 -58.90 TS 37 21 284
1873 NA CS 1873-09-26 00:00:00 TS 14.03 -60.43 40 hurdat_atl 375 375 O____________O hurdat_atl AL051873 14.70 -62.30 TS 40 0 13.70 -59.50 TS 40 25 286
1873 NA CS 03:00:00 TS 14.30 -61.42 403 403 P____________P AL051873 14.74 -62.69 TS 40 0 13.85 -60.15 TS 40 18 285
1873 NA CS 06:00:00 TS 14.48 -62.18 40 hurdat_atl 425 425 O____________O hurdat_atl AL051873 14.80 -63.10 TS 40 0 14.00 -60.80 TS 40 14 283
1873 NA CS 09:00:00 TS 14.62 -62.80 436 436 P____________P AL051873 14.88 -63.53 TS 45 0 14.08 -61.36 TS 45 11 283
1873 NA CS 12:00:00 TS 14.73 -63.33 50 hurdat_atl 448 401 O____________O hurdat_atl AL051873 15.00 -64.00 TS 50 0 14.20 -62.00 TS 50 12 285
1873 NA CS 15:00:00 TS 14.91 -63.97 396 345 P____________P AL051873 15.13 -64.51 TS 50 0 14.47 -62.90 TS 55 14 287
1873 NA CS 18:00:00 TS 15.13 -64.70 50 hurdat_atl 345 292 O____________O hurdat_atl AL051873 15.30 -65.10 TS 50 0 14.80 -63.90 TS 60 15 287
1873 NA CS 21:00:00 TS 15.37 -65.48 289 257 P____________P AL051873 15.50 -65.80 TS 55 0 15.10 -64.85 TS 60 16 287
1873 NA CS 1873-09-27 00:00:00 TS 15.60 -66.27 60 hurdat_atl 257 235 O____________O hurdat_atl AL051873 15.70 -66.50 TS 60 0 15.40 -65.80 TS 60 15 287
1873 NA CS 03:00:00 TS 15.81 -66.95 235 213 P____________P AL051873 15.86 -67.05 TS 60 0 15.71 -66.75 TS 65 14 287
1873 NA CS 06:00:00 TS 16.00 -67.63 60 hurdat_atl 216 214 O____________O hurdat_atl AL051873 16.00 -67.60 TS 60 0 16.00 -67.70 HU 70 15 283
1873 NA CS 09:00:00 TS 16.15 -68.45 224 213 P____________P AL051873 16.09 -68.30 TS 65 1 16.27 -68.74 HU 72 15 281
1873 NA CS 12:00:00 TS 16.30 -69.20 70 hurdat_atl 216 197 O____________O hurdat_atl AL051873 16.20 -69.00 HU 70 1 16.50 -69.60 HU 75 13 286
1873 NA CS 15:00:00 TS 16.50 -69.73 197 168 P____________P AL051873 16.39 -69.58 HU 70 1 16.71 -70.04 HU 77 10 293
1873 NA CS 18:00:00 TS 16.70 -70.17 70 hurdat_atl 162 115 O____________O hurdat_atl AL051873 16.60 -70.10 HU 70 1 16.90 -70.30 HU 80 9 293
1873 NA CS 21:00:00 TS 16.86 -70.61 115 79 P____________P AL051873 16.74 -70.59 HU 75 1 17.10 -70.64 HU 82 9 291
1873 NA CS 1873-09-28 00:00:00 TS 17.03 -71.07 80 hurdat_atl 74 44 O____________O hurdat_atl AL051873 16.90 -71.10 HU 80 1 17.30 -71.00 HU 85 10 292
1873 NA CS 03:00:00 TS 17.25 -71.61 39 39 P____________P AL051873 17.13 -71.72 HU 85 2 17.51 -71.40 HU 87 11 295
1873 NA CS 06:00:00 TS 17.50 -72.13 90 hurdat_atl 62 54 O____________O hurdat_atl AL051873 17.40 -72.30 HU 90 2 17.70 -71.80 HU 90 10 299
1873 NA CS 09:00:00 TS 17.71 -72.50 54 11 P____________P AL051873 17.66 -72.67 HU 95 2 17.82 -72.15 HU 95 8 307
1873 NA CS 12:00:00 TS 18.00 -72.83 100 hurdat_atl 11 0 O____________O hurdat_atl AL051873 18.00 -73.00 HU 100 3 18.00 -72.50 MH 100 971 10 315
1873 NA NA 15:00:00 TS 18.45 -73.27 11 11 P____________P AL051873 18.49 -73.46 HU 95 2 18.37 -72.90 MH 97 12 319
1873 NA CS 18:00:00 TS 18.93 -73.70 90 hurdat_atl 44 44 O____________O hurdat_atl AL051873 19.00 -73.90 HU 90 2 18.80 -73.30 HU 95 11 321
1873 NA CS 21:00:00 TS 19.31 -74.00 68 55 P____________P AL051873 19.39 -74.19 HU 90 2 19.16 -73.61 HU 92 9 320
1873 NA CS 1873-09-29 00:00:00 TS 19.63 -74.33 90 hurdat_atl 55 11 O____________O hurdat_atl AL051873 19.70 -74.50 HU 90 2 19.50 -74.00 HU 90 10 309
1873 NA CS 03:00:00 TS 19.96 -74.86 0 0 P____________P AL051873 20.00 -74.97 HU 85 2 19.89 -74.65 HU 90 12 299
1873 NA NA 06:00:00 TS 20.20 -75.43 80 hurdat_atl 0 0 O____________O hurdat_atl AL051873 20.20 -75.50 HU 80 1 20.20 -75.30 HU 90 10 287
1873 NA NA 09:00:00 TS 20.27 -75.92 0 0 P____________P AL051873 20.24 -76.03 HU 70 1 20.34 -75.70 HU 85 8 275
1873 NA NA 12:00:00 TS 20.27 -76.33 60 hurdat_atl 0 0 O____________O hurdat_atl AL051873 20.20 -76.50 TS 60 0 20.40 -76.00 HU 80 7 271
1873 NA NA 15:00:00 TS 20.29 -76.67 0 0 P____________P AL051873 20.21 -76.82 TS 55 0 20.45 -76.35 HU 77 6 273
1873 NA NA 18:00:00 TS 20.30 -76.97 50 hurdat_atl 0 0 O____________O hurdat_atl AL051873 20.20 -77.10 TS 50 0 20.50 -76.70 HU 75 6 272
1873 NA CS 21:00:00 TS 20.31 -77.32 10 10 P____________P AL051873 20.16 -77.45 TS 45 0 20.60 -77.06 HU 72 7 270
1873 NA CS 1873-09-30 00:00:00 TS 20.30 -77.67 40 hurdat_atl 24 24 O____________O hurdat_atl AL051873 20.10 -77.80 TS 40 0 20.70 -77.40 HU 70 6 267
1873 NA CS 03:00:00 TS 20.28 -77.97 44 44 P____________P AL051873 20.04 -78.11 TS 40 0 20.75 -77.70 HU 70 6 267
1873 NA CS 06:00:00 TS 20.27 -78.27 40 hurdat_atl 54 54 O____________O hurdat_atl AL051873 20.00 -78.40 TS 40 0 20.80 -78.00 HU 70 6 271
1873 NA CS 09:00:00 TS 20.29 -78.58 74 74 P____________P AL051873 19.98 -78.70 TS 40 0 20.90 -78.34 HU 70 6 276
1873 NA CS 12:00:00 TS 20.33 -78.90 40 hurdat_atl 88 84 O____________O hurdat_atl AL051873 20.00 -79.00 TS 40 0 21.00 -78.70 HU 70 6 279
1873 NA CS 15:00:00 TS 20.39 -79.22 99 99 P____________P AL051873 20.05 -79.31 TS 40 0 21.06 -79.06 HU 72 6 280
1873 NA CS 18:00:00 TS 20.43 -79.53 40 hurdat_atl 123 123 O____________O hurdat_atl AL051873 20.10 -79.60 TS 40 0 21.10 -79.40 HU 75 5 277
1873 NA CS 21:00:00 TS 20.45 -79.81 126 126 P____________P AL051873 20.11 -79.86 TS 40 0 21.15 -79.70 HU 75 5 274
1873 NA CS 1873-10-01 00:00:00 TS 20.47 -80.07 40 hurdat_atl 134 134 O____________O hurdat_atl AL051873 20.10 -80.10 TS 40 0 21.20 -80.00 HU 75 5 273
1873 NA CS 03:00:00 TS 20.49 -80.35 140 140 P____________P AL051873 20.11 -80.36 TS 40 0 21.24 -80.34 HU 80 5 274
1873 NA CS 06:00:00 TS 20.50 -80.63 40 hurdat_atl 147 147 O____________O hurdat_atl AL051873 20.10 -80.60 TS 40 0 21.30 -80.70 HU 85 5 272
1873 NA CS 09:00:00 TS 20.50 -80.89 163 163 P____________P AL051873 20.05 -80.81 TS 40 0 21.40 -81.06 HU 87 5 270
1873 NA CS 12:00:00 TS 20.50 -81.13 40 hurdat_atl 168 167 O____________O hurdat_atl AL051873 20.00 -81.00 TS 40 0 21.50 -81.40 HU 90 4 272
1873 NA CS 15:00:00 TS 20.51 -81.37 167 154 P____________P AL051873 19.99 -81.20 TS 40 0 21.56 -81.70 HU 92 4 274
1873 NA CS 18:00:00 TS 20.53 -81.60 40 hurdat_atl 154 142 O____________O hurdat_atl AL051873 20.00 -81.40 TS 40 0 21.60 -82.00 HU 95 5 274
1873 NA CS 21:00:00 TS 20.55 -81.85 137 115 P____________P AL051873 20.00 -81.61 TS 45 0 21.64 -82.34 HU 97 5 274
1873 NA CS 1873-10-02 00:00:00 TS 20.57 -82.10 50 hurdat_atl 115 103 O____________O hurdat_atl AL051873 20.00 -81.80 TS 50 0 21.70 -82.70 MH 100 4 277
1873 NA CS 03:00:00 TS 20.60 -82.32 103 94 P____________P AL051873 20.00 -81.95 TS 50 0 21.80 -83.05 MH 100 4 279
1873 NA CS 06:00:00 TS 20.63 -82.53 50 hurdat_atl 94 78 O____________O hurdat_atl AL051873 20.00 -82.10 TS 50 0 21.90 -83.40 MH 100 4 277
1873 NA CS 09:00:00 TS 20.66 -82.79 78 78 P____________P AL051873 20.00 -82.30 TS 50 0 21.97 -83.78 MH 100 5 274
1873 NA CS 12:00:00 TS 20.67 -83.03 50 hurdat_atl 80 80 O____________O hurdat_atl AL051873 20.00 -82.50 TS 50 0 22.00 -84.10 MH 100 960 4 273
1873 NA CS 15:00:00 TS 20.67 -83.20 88 88 P____________P AL051873 20.00 -82.66 TS 50 0 22.01 -84.28 MH 100 3 270
1873 NA CS 18:00:00 TS 20.67 -83.33 50 hurdat_atl 93 93 O____________O hurdat_atl AL051873 20.00 -82.80 TS 50 0 22.00 -84.40 MH 100 3 266
1873 NA CS 21:00:00 TS 20.65 -83.47 103 103 P____________P AL051873 20.00 -82.94 TS 55 0 21.96 -84.55 MH 100 3 263
1873 NA CS 1873-10-03 00:00:00 TS 20.63 -83.63 60 hurdat_atl 118 118 O____________O hurdat_atl AL051873 20.00 -83.10 TS 60 0 21.90 -84.70 MH 100 3 264
1873 NA CS 03:00:00 TS 20.62 -83.84 130 130 P____________P AL051873 20.00 -83.34 TS 60 0 21.85 -84.85 MH 100 4 265
1873 NA CS 06:00:00 TS 20.60 -84.07 60 hurdat_atl 140 137 O____________O hurdat_atl AL051873 20.00 -83.60 TS 60 0 21.80 -85.00 MH 100 4 265
1873 NA CS 09:00:00 TS 20.58 -84.25 137 134 P____________P AL051873 20.00 -83.79 TS 65 1 21.75 -85.15 MH 100 3 264
1873 NA CS 12:00:00 TS 20.57 -84.43 70 hurdat_atl 134 134 O____________O hurdat_atl AL051873 20.00 -84.00 HU 70 1 21.70 -85.30 MH 100 4 265
1873 NA CS 15:00:00 TS 20.55 -84.68 134 134 P____________P AL051873 20.00 -84.29 HU 70 1 21.65 -85.45 MH 100 5 266
1873 NA CS 18:00:00 TS 20.53 -84.93 70 hurdat_atl 145 145 O____________O hurdat_atl AL051873 20.00 -84.60 HU 70 1 21.60 -85.60 MH 100 4 265
1873 NA CS 21:00:00 TS 20.51 -85.15 151 150 P____________P AL051873 19.99 -84.86 HU 70 1 21.55 -85.74 MH 100 4 265
1873 NA CS 1873-10-04 00:00:00 TS 20.50 -85.37 70 hurdat_atl 150 132 O____________O hurdat_atl AL051873 20.00 -85.10 HU 70 1 21.50 -85.90 MH 100 4 269
1873 NA CS 03:00:00 TS 20.50 -85.61 132 115 P____________P AL051873 20.04 -85.36 HU 70 1 21.43 -86.10 MH 100 4 274
1873 NA CS 06:00:00 TS 20.53 -85.83 70 hurdat_atl 115 91 O____________O hurdat_atl AL051873 20.10 -85.60 HU 70 1 21.40 -86.30 MH 100 4 281
1873 NA CS 09:00:00 TS 20.59 -86.05 83 68 P____________P AL051873 20.14 -85.83 HU 75 1 21.47 -86.50 MH 100 4 291
1873 NA CS 12:00:00 TS 20.67 -86.20 80 hurdat_atl 68 61 O____________O hurdat_atl AL051873 20.20 -86.00 HU 80 1 21.60 -86.60 MH 100 2 324
1873 NA CS 15:00:00 TS 20.77 -86.20 61 56 P____________P AL051873 20.28 -86.06 HU 80 1 21.75 -86.50 MH 100 2 11
1873 NA CS 18:00:00 TS 20.90 -86.17 80 hurdat_atl 56 53 O____________O hurdat_atl AL051873 20.40 -86.10 HU 80 1 21.90 -86.30 MH 100 3 0
1873 NA CS 21:00:00 TS 21.06 -86.22 51 42 P____________P AL051873 20.59 -86.25 HU 80 1 22.00 -86.15 MH 100 3 344
1873 NA CS 1873-10-05 00:00:00 TS 21.23 -86.27 80 hurdat_atl 42 42 O____________O hurdat_atl AL051873 20.80 -86.40 HU 80 1 22.10 -86.00 MH 100 4 354
1873 NA CS 03:00:00 TS 21.42 -86.26 52 52 P____________P AL051873 21.01 -86.47 HU 80 1 22.25 -85.84 MH 100 4 6
1873 NA CS 06:00:00 TS 21.60 -86.23 80 hurdat_atl 70 70 O____________O hurdat_atl AL051873 21.20 -86.50 HU 80 1 22.40 -85.70 MH 100 3 7
1873 NA CS 09:00:00 TS 21.73 -86.21 76 76 P____________P AL051873 21.35 -86.51 HU 85 2 22.48 -85.61 MH 100 3 11
1873 NA GM 12:00:00 TS 21.87 -86.17 90 hurdat_atl 91 91 O____________O hurdat_atl AL051873 21.50 -86.50 HU 90 2 22.60 -85.50 MH 100 4 20
1873 NA GM 15:00:00 TS 22.07 -86.09 113 108 P____________P AL051873 21.68 -86.47 HU 90 2 22.83 -85.32 MH 100 5 23
1873 NA GM 18:00:00 TS 22.30 -85.97 90 hurdat_atl 112 102 O____________O hurdat_atl AL051873 21.90 -86.40 HU 90 2 23.10 -85.10 MH 100 5 29
1873 NA GM 21:00:00 TS 22.54 -85.81 106 106 P____________P AL051873 22.14 -86.26 HU 90 2 23.35 -84.90 MH 100 6 32
1873 NA GM 1873-10-06 00:00:00 TS 22.80 -85.63 90 hurdat_atl 118 118 O____________O hurdat_atl AL051873 22.40 -86.10 HU 90 2 23.60 -84.70 MH 100 6 28
1873 NA GM 03:00:00 TS 23.07 -85.50 143 143 P____________P AL051873 22.68 -86.01 HU 90 2 23.85 -84.49 MH 100 6 23
1873 NA GM 06:00:00 TS 23.37 -85.37 90 hurdat_atl 158 150 O____________O hurdat_atl AL051873 23.00 -85.90 HU 90 2 24.10 -84.30 MH 100 6 22
1873 NA GM 09:00:00 TS 23.65 -85.25 173 165 P____________P AL051873 23.32 -85.79 HU 95 2 24.32 -84.18 MH 100 7 28
1873 NA GM 12:00:00 TS 24.00 -85.00 100 hurdat_atl 177 177 O____________O hurdat_atl AL051873 23.70 -85.50 HU 100 3 24.60 -84.00 MH 100 11 42
1873 NA GM 15:00:00 TS 24.44 -84.48 196 196 P____________P AL051873 24.14 -84.89 HU 100 3 25.03 -83.67 MH 100 15 49
1873 NA GM 18:00:00 TS 24.97 -83.80 100 hurdat_atl 233 146 O____________O hurdat_atl AL051873 24.70 -84.10 HU 100 3 25.50 -83.20 MH 100 17 48
1873 NA GM 21:00:00 TS 25.56 -83.09 141 44 P____________P AL051873 25.38 -83.34 HU 100 3 25.91 -82.59 MH 100 19 47
1873 NA GM 1873-10-07 00:00:00 TS 26.23 -82.30 100 959 hurdat_atl 44 14 O____________O hurdat_atl AL051873 26.20 -82.50 HU 100 959 3 26.30 -81.90 MH 100 959 20 46
1873 NA GM 01:00:00 TS 26.47 -82.04 100 959 hurdat_atl 0 0 O____________P hurdat_atl AL051873 26.50 -82.20 L HU 100 959 3 26.41 -81.72 MH 99 22 46
1873 NA NA 03:00:00 TS 26.97 -81.43 0 0 P____________P AL051873 27.14 -81.48 HU 91 2 26.64 -81.34 MH 97 24 49
1873 NA NA 06:00:00 TS 27.77 -80.37 80 hurdat_atl 9 9 O____________O hurdat_atl AL051873 28.10 -80.30 HU 80 1 27.10 -80.50 HU 95 25 50
1873 NA NA 09:00:00 TS 28.55 -79.27 117 117 P____________P AL051873 28.94 -79.39 HU 80 1 27.78 -79.04 HU 95 25 51
1873 NA NA 12:00:00 TS 29.33 -78.17 80 hurdat_atl 240 240 O____________O hurdat_atl AL051873 29.70 -78.60 HU 80 1 28.60 -77.30 HU 95 24 50
1873 NA NA 15:00:00 TS 30.11 -77.12 374 374 P____________P AL051873 30.42 -77.83 HU 80 1 29.48 -75.70 HU 95 24 49
1873 NA NA 18:00:00 TS 30.87 -76.10 80 hurdat_atl 378 369 O____________O hurdat_atl AL051873 31.10 -77.10 HU 80 1 30.40 -74.10 HU 95 23 50
1873 NA NA 21:00:00 TS 31.60 -75.07 369 345 P____________P AL051873 31.76 -76.35 HU 85 2 31.29 -72.50 HU 95 23 51
1873 NA NA 1873-10-08 00:00:00 TS 32.30 -74.03 90 hurdat_atl 353 351 O____________O hurdat_atl AL051873 32.40 -75.60 HU 90 2 32.10 -70.90 HU 95 962 22 53
1873 NA NA 03:00:00 TS 32.91 -73.00 376 374 P____________P AL051873 33.05 -74.85 HU 90 2 32.63 -69.29 HU 82 19 48
1873 NA NA 06:00:00 TS 33.59 -72.35 90 hurdat_atl 374 359 O____________O hurdat_atl AL051873 33.70 -74.10 HU 90 2 33.30 -67.70 HU 70 17 32
1873 NA NA 09:00:00 TS 34.37 -71.91 362 352 P____________P AL051873 34.35 -73.36 HU 85 2 34.45 -66.12 HU 60 16 20
1873 NA NA 12:00:00 TS 35.10 -71.70 80 hurdat_atl 352 334 O____________O hurdat_atl AL051873 35.00 -72.60 HU 80 1 35.90 -64.50 TS 50 13 4
1873 NA NA 15:00:00 TS 35.66 -71.82 333 333 P_____________ AL051873 35.66 -71.82 HU 80 1 TS 14 28
1873 NA NA 18:00:00 TS 36.30 -70.90 80 hurdat_atl 416 416 O_____________ hurdat_atl AL051873 36.30 -70.90 HU 80 1 21 53
1873 NA NA 21:00:00 TS 36.90 -69.75 487 480 P_____________ AL051873 36.90 -69.75 HU 75 1 23 58
1873 NA NA 1873-10-09 00:00:00 TS 37.50 -68.50 70 hurdat_atl 483 452 O_____________ hurdat_atl AL051873 37.50 -68.50 HU 70 1 24 57
1873 NA NA 03:00:00 TS 38.19 -67.24 456 451 P_____________ AL051873 38.19 -67.24 HU 70 1 23 55
1873 NA NA 06:00:00 TS 38.80 -66.10 70 hurdat_atl 461 459 O_____________ hurdat_atl AL051873 38.80 -66.10 HU 70 1 19 57
1873 NA NA 09:00:00 TS 39.21 -65.23 478 448 P_____________ AL051873 39.21 -65.23 HU 65 1 14 61
1873 NA NA 12:00:00 ET 39.50 -64.50 60 hurdat_atl 449 429 O_____________ hurdat_atl AL051873 39.50 -64.50 EX 60 -4 13 64
1873 NA NA 15:00:00 ET 39.76 -63.74 432 427 P_____________ AL051873 39.76 -63.74 EX 60 -4 13 67
1873 NA NA 18:00:00 ET 40.00 -63.00 60 hurdat_atl 433 430 O_____________ hurdat_atl AL051873 40.00 -63.00 EX 60 -4 12 67
1873 NA NA 21:00:00 ET 40.25 -62.25 447 438 P_____________ AL051873 40.25 -62.25 EX 60 -4 12 66
1873 NA NA 1873-10-10 00:00:00 ET 40.50 -61.50 60 hurdat_atl 456 456 O_____________ hurdat_atl AL051873 40.50 -61.50 EX 60 -4 12 66
1873 NA NA 03:00:00 ET 40.75 -60.75 460 460 P_____________ AL051873 40.75 -60.75 EX 60 -4 12 66
1873 NA NA 06:00:00 ET 41.00 -60.00 60 hurdat_atl 468 O_____________ hurdat_atl AL051873 41.00 -60.00 EX 60 -4 12 66